LYBE/BEG METAR and TAF weather

Enter ICAO airport designator
Station Type Date Time Source
LYBE METAR 2021/06/24 05:30 UTC NOAA

LYBE 240530Z 08004KT CAVOK 27/20 Q1015 NOSIG


Station Type Date Time Source
LYBE Decoded METAR 2021/06/24 05:30 UTC NOAA

Beograd / Surcin, Serbia and Montenegro (LYBE) 44-49N 020-17E 99M
Jun 24, 2021 - 01:30 AM EDT / 2021.06.24 0530 UTC
Wind: from the E (080 degrees) at 5 MPH (4 KT):0
Visibility: greater than 7 mile(s):0
Temperature: 80 F (27 C)
Dew Point: 68 F (20 C)
Relative Humidity: 65%
Pressure (altimeter): 29.97 in. Hg (1015 hPa)
ob: LYBE 240530Z 08004KT CAVOK 27/20 Q1015 NOSIG
cycle: 5

Station Type Date Time Source
LYBE TAF 2021/06/24 06:21 UTC NOAA

TAF LYBE 240500Z 2406/2506 13008KT CAVOK TX39/2413Z TN22/2503Z

Example: see airport list